Shin Chun — VRFD2 — position and weather

sailwx.info

Track history (hours):
 
Tides and Currents Weather Stations Pressure Air Temp Water Temp Dewpoint Dewpoint Depression Visibility Wind Speed Wind Dir Waves Ship Positions

Shin Chun

Last reported at 2015-Mar-27 12:33 UTC. Time now 2015-Mar-27 19:09 UTC.
Position N 23°51' E 119°56'.

Length 152 m; draft 6.5 m.

Type: Cargo ship. MMSI: 477218300.

Date/timePositionNaut miles runAvg speedWind from/ knotsBaromVisibWave heightAir tempDewpointWater temp
2015-Mar-27 12:33N 23°51' E 119°56'6010.0
2015-Mar-27 06:33N 22°51' E 120°01'1110.9
2015-Mar-27 05:33N 22°42' E 120°07'1110.6
2015-Mar-27 04:33N 22°33' E 120°13'6 5.8
2015-Mar-27 03:33N 22°33' E 120°20'0 0.0
2015-Mar-27 02:29N 22°33' E 120°20'0 0.0
2015-Mar-27 01:29N 22°33' E 120°20'0 0.0
2015-Mar-27 00:29N 22°33' E 120°20'0 0.0
2015-Mar-26 23:23N 22°33' E 120°20'0 0.0
2015-Mar-26 22:29N 22°33' E 120°20'0 0.0
2015-Mar-26 21:29N 22°33' E 120°20'0 0.0
2015-Mar-26 20:29N 22°33' E 120°20'0 0.0
2015-Mar-26 19:29N 22°33' E 120°20'0 0.0
2015-Mar-26 18:29N 22°33' E 120°20'5 5.9
2015-Mar-26 17:33N 22°32' E 120°14'1313.1
2015-Mar-26 16:33N 22°40' E 120°03'1312.6
2015-Mar-26 15:33N 22°49' E 119°52'1513.0
2015-Mar-26 14:24N 22°57' E 119°39'10112.7
2015-Mar-26 06:25N 24°10' E 118°22'1112.2
2015-Mar-26 05:33N 24°17' E 118°14'1212.0
2015-Mar-26 04:32N 24°25' E 118°04'6 5.6
2015-Mar-26 03:32N 24°31' E 118°05'0 0.0
2015-Mar-26 02:28N 24°31' E 118°05'0 0.0
2015-Mar-26 01:10N 24°31' E 118°05'0 0.0
2015-Mar-25 23:28N 24°31' E 118°05'0 0.0
2015-Mar-25 22:28N 24°31' E 118°05'0 0.0
2015-Mar-25 21:25N 24°31' E 118°05'0 0.0
2015-Mar-25 20:25N 24°31' E 118°05'0 0.0
2015-Mar-25 19:28N 24°31' E 118°05'0 0.0
2015-Mar-25 18:31N 24°31' E 118°05'0 0.0
2015-Mar-25 17:28N 24°31' E 118°05'0 0.0
2015-Mar-25 16:28N 24°31' E 118°05'0 0.0
2015-Mar-25 15:14N 24°31' E 118°05'55 9.5
2015-Mar-25 09:29N 24°29' E 119°05'1415.5
2015-Mar-25 08:34N 24°34' E 119°19'110 2.8
2015-Mar-23 17:08N 22°52' E 120°01'915.2
2015-Mar-23 16:33N 22°45' E 120°07'1312.6
2015-Mar-23 15:33N 22°36' E 120°17'2 2.1
2015-Mar-23 14:33N 22°35' E 120°18'0 0.0
2015-Mar-23 13:29N 22°35' E 120°18'0 0.0
2015-Mar-23 12:29N 22°35' E 120°18'0 0.0
2015-Mar-23 11:29N 22°35' E 120°18'0 0.0
2015-Mar-23 10:29N 22°35' E 120°18'1 1.3
2015-Mar-23 09:33N 22°36' E 120°17'4 3.5
2015-Mar-23 08:30N 22°37' E 120°13'0 0.0
2015-Mar-23 07:30N 22°37' E 120°13'0 0.0
2015-Mar-23 06:30N 22°37' E 120°13'0 0.0
2015-Mar-23 05:30N 22°37' E 120°13'0 0.0
2015-Mar-23 04:30N 22°37' E 120°13'0 0.0
2015-Mar-23 03:30N 22°37' E 120°13'0 0.0
2015-Mar-23 02:30N 22°37' E 120°13'0 0.0
2015-Mar-23 01:24N 22°37' E 120°13'0 0.0
2015-Mar-23 00:30N 22°37' E 120°13'0 0.0
2015-Mar-22 23:30N 22°37' E 120°13'5 5.1
2015-Mar-22 22:33N 22°40' E 120°10'1211.8
2015-Mar-22 21:33N 22°50' E 120°03'14710.9
2015-Mar-22 08:07N 25°17' E 120°02'5012.7
2015-Mar-22 04:11N 26°05' E 119°47'1111.1
2015-Mar-22 03:13N 26°08' E 119°35'710.3
2015-Mar-22 02:33N 26°03' E 119°30'3 2.8
2015-Mar-22 01:28N 26°00' E 119°29'0 0.0
2015-Mar-22 00:29N 26°00' E 119°29'0 0.0
2015-Mar-21 23:28N 26°00' E 119°29'0 0.0
2015-Mar-21 22:28N 26°00' E 119°29'0 0.0
2015-Mar-21 21:28N 26°00' E 119°29'0 0.0
2015-Mar-21 20:16N 26°00' E 119°29'0 0.0
2015-Mar-21 19:28N 26°00' E 119°29'0 0.0
2015-Mar-21 18:28N 26°00' E 119°29'0 0.0
2015-Mar-21 17:16N 26°00' E 119°29'0 0.0
2015-Mar-21 16:28N 26°00' E 119°29'0 0.0
2015-Mar-21 15:28N 26°00' E 119°29'0 0.0
2015-Mar-21 14:22N 26°00' E 119°29'0 0.0
2015-Mar-21 13:28N 26°00' E 119°29'0 0.0
2015-Mar-21 12:28N 26°00' E 119°29'0 0.0
2015-Mar-21 11:28N 26°00' E 119°29'0 0.0
2015-Mar-21 10:10N 26°00' E 119°29'0 0.0
2015-Mar-21 09:28N 26°00' E 119°29'0 0.0
2015-Mar-21 08:28N 26°00' E 119°29'0 0.0
2015-Mar-21 07:28N 26°00' E 119°29'0 0.0
2015-Mar-21 06:28N 26°00' E 119°29'0 0.0
2015-Mar-21 05:28N 26°00' E 119°29'0 0.0
2015-Mar-21 04:28N 26°00' E 119°29'0 0.0
2015-Mar-21 03:28N 26°00' E 119°29'4 4.4
2015-Mar-21 02:33N 26°04' E 119°31'1010.5
2015-Mar-21 01:33N 26°06' E 119°42'9 6.8
2015-Mar-21 00:12N 26°00' E 119°51'3 2.6
2015-Mar-20 23:08N 25°58' E 119°53'912.8
2015-Mar-20 22:24N 25°49' E 119°54'1914.8
2015-Mar-20 21:08N 25°31' E 120°00'1014.5
2015-Mar-20 20:25N 25°21' E 120°01'14614.6
2015-Mar-20 10:29N 22°55' E 119°59'1314.7
2015-Mar-20 09:33N 22°43' E 120°06'1312.7
2015-Mar-20 08:33N 22°33' E 120°14'0 0.2
2015-Mar-20 07:29N 22°33' E 120°15'0 0.0
2015-Mar-20 06:29N 22°33' E 120°15'0 0.0
2015-Mar-20 05:29N 22°33' E 120°15'0 0.0
2015-Mar-20 04:29N 22°33' E 120°15'0 0.0
2015-Mar-20 03:29N 22°33' E 120°15'0 0.0
2015-Mar-20 02:29N 22°33' E 120°15'0 0.0
2015-Mar-20 01:29N 22°33' E 120°15'1 0.5
2015-Mar-20 00:33N 22°33' E 120°15'4 4.3
2015-Mar-19 23:33N 22°34' E 120°20'0 0.1
2015-Mar-19 22:30N 22°33' E 120°20'0 0.0
2015-Mar-19 19:30N 22°33' E 120°20'0 0.0
2015-Mar-19 18:18N 22°33' E 120°20'2 3.2
2015-Mar-19 17:33N 22°33' E 120°17'1312.9
2015-Mar-19 16:33N 22°37' E 120°04'1515.2
2015-Mar-19 15:33N 22°47' E 119°52'1615.4
2015-Mar-19 14:32N 22°57' E 119°38'1313.2
2015-Mar-19 13:33N 23°06' E 119°28'6212.0
2015-Mar-19 08:21N 23°52' E 118°42'1114.3
2015-Mar-19 07:33N 23°59' E 118°33'1414.0
2015-Mar-19 06:33N 24°09' E 118°21'1414.0
2015-Mar-19 05:33N 24°20' E 118°12'1211.6
2015-Mar-19 04:33N 24°29' E 118°03'3 2.2
2015-Mar-19 03:22N 24°31' E 118°05'0 0.0
2015-Mar-19 02:28N 24°31' E 118°05'0 0.0
2015-Mar-19 01:25N 24°31' E 118°05'0 0.0
2015-Mar-19 00:25N 24°31' E 118°05'0 0.0
2015-Mar-18 23:31N 24°31' E 118°05'0 0.0
2015-Mar-18 22:10N 24°31' E 118°05'0 0.0
2015-Mar-18 21:28N 24°31' E 118°05'0 0.0
2015-Mar-18 20:19N 24°31' E 118°05'0 0.0
2015-Mar-18 19:31N 24°31' E 118°05'0 0.0
2015-Mar-18 18:31N 24°31' E 118°05'0 0.0
2015-Mar-18 17:28N 24°31' E 118°05'0 0.0
2015-Mar-18 16:16N 24°31' E 118°05'0 0.0
2015-Mar-18 15:22N 24°31' E 118°05'0 0.0
2015-Mar-18 14:31N 24°31' E 118°05'0 0.0
2015-Mar-18 13:31N 24°31' E 118°05'0 0.0
2015-Mar-18 12:31N 24°31' E 118°05'0 0.0
2015-Mar-18 11:31N 24°31' E 118°05'0 0.0
2015-Mar-18 10:28N 24°31' E 118°05'4 4.0
2015-Mar-18 09:33N 24°28' E 118°03'8 8.0
2015-Mar-18 08:30N 24°21' E 118°09'1212.1
2015-Mar-18 07:33N 24°20' E 118°22'1413.0
2015-Mar-18 06:28N 24°24' E 118°37'1313.5
2015-Mar-18 05:28N 24°29' E 118°50'1313.8
2015-Mar-18 04:33N 24°34' E 119°03'1413.7
2015-Mar-18 03:32N 24°38' E 119°18'  
Track history (hours):
 
Tides and Currents Weather Stations Pressure Air Temp Water Temp Dewpoint Dewpoint Depression Visibility Wind Speed Wind Dir Waves Ship Positions

Shin Chun

Last reported at 2015-Mar-27 12:33 UTC. Time now 2015-Mar-27 19:09 UTC.
Position N 23°51' E 119°56'.

Length 152 m; draft 6.5 m.

Type: Cargo ship. MMSI: 477218300.

Date/timePositionNaut miles runAvg speedWind from/ knotsBaromVisibWave heightAir tempDewpointWater temp
2015-Mar-27 12:33N 23°51' E 119°56'6010.0
2015-Mar-27 06:33N 22°51' E 120°01'1110.9
2015-Mar-27 05:33N 22°42' E 120°07'1110.6
2015-Mar-27 04:33N 22°33' E 120°13'6 5.8
2015-Mar-27 03:33N 22°33' E 120°20'0 0.0
2015-Mar-27 02:29N 22°33' E 120°20'0 0.0
2015-Mar-27 01:29N 22°33' E 120°20'0 0.0
2015-Mar-27 00:29N 22°33' E 120°20'0 0.0
2015-Mar-26 23:23N 22°33' E 120°20'0 0.0
2015-Mar-26 22:29N 22°33' E 120°20'0 0.0
2015-Mar-26 21:29N 22°33' E 120°20'0 0.0
2015-Mar-26 20:29N 22°33' E 120°20'0 0.0
2015-Mar-26 19:29N 22°33' E 120°20'0 0.0
2015-Mar-26 18:29N 22°33' E 120°20'5 5.9
2015-Mar-26 17:33N 22°32' E 120°14'1313.1
2015-Mar-26 16:33N 22°40' E 120°03'1312.6
2015-Mar-26 15:33N 22°49' E 119°52'1513.0
2015-Mar-26 14:24N 22°57' E 119°39'10112.7
2015-Mar-26 06:25N 24°10' E 118°22'1112.2
2015-Mar-26 05:33N 24°17' E 118°14'1212.0
2015-Mar-26 04:32N 24°25' E 118°04'6 5.6
2015-Mar-26 03:32N 24°31' E 118°05'0 0.0
2015-Mar-26 02:28N 24°31' E 118°05'0 0.0
2015-Mar-26 01:10N 24°31' E 118°05'0 0.0
2015-Mar-25 23:28N 24°31' E 118°05'0 0.0
2015-Mar-25 22:28N 24°31' E 118°05'0 0.0
2015-Mar-25 21:25N 24°31' E 118°05'0 0.0
2015-Mar-25 20:25N 24°31' E 118°05'0 0.0
2015-Mar-25 19:28N 24°31' E 118°05'0 0.0
2015-Mar-25 18:31N 24°31' E 118°05'0 0.0
2015-Mar-25 17:28N 24°31' E 118°05'0 0.0
2015-Mar-25 16:28N 24°31' E 118°05'0 0.0
2015-Mar-25 15:14N 24°31' E 118°05'55 9.5
2015-Mar-25 09:29N 24°29' E 119°05'1415.5
2015-Mar-25 08:34N 24°34' E 119°19'110 2.8
2015-Mar-23 17:08N 22°52' E 120°01'915.2
2015-Mar-23 16:33N 22°45' E 120°07'1312.6
2015-Mar-23 15:33N 22°36' E 120°17'2 2.1
2015-Mar-23 14:33N 22°35' E 120°18'0 0.0
2015-Mar-23 13:29N 22°35' E 120°18'0 0.0
2015-Mar-23 12:29N 22°35' E 120°18'0 0.0
2015-Mar-23 11:29N 22°35' E 120°18'0 0.0
2015-Mar-23 10:29N 22°35' E 120°18'1 1.3
2015-Mar-23 09:33N 22°36' E 120°17'4 3.5
2015-Mar-23 08:30N 22°37' E 120°13'0 0.0
2015-Mar-23 07:30N 22°37' E 120°13'0 0.0
2015-Mar-23 06:30N 22°37' E 120°13'0 0.0
2015-Mar-23 05:30N 22°37' E 120°13'0 0.0
2015-Mar-23 04:30N 22°37' E 120°13'0 0.0
2015-Mar-23 03:30N 22°37' E 120°13'0 0.0
2015-Mar-23 02:30N 22°37' E 120°13'0 0.0
2015-Mar-23 01:24N 22°37' E 120°13'0 0.0
2015-Mar-23 00:30N 22°37' E 120°13'0 0.0
2015-Mar-22 23:30N 22°37' E 120°13'5 5.1
2015-Mar-22 22:33N 22°40' E 120°10'1211.8
2015-Mar-22 21:33N 22°50' E 120°03'14710.9
2015-Mar-22 08:07N 25°17' E 120°02'5012.7
2015-Mar-22 04:11N 26°05' E 119°47'1111.1
2015-Mar-22 03:13N 26°08' E 119°35'710.3
2015-Mar-22 02:33N 26°03' E 119°30'3 2.8
2015-Mar-22 01:28N 26°00' E 119°29'0 0.0
2015-Mar-22 00:29N 26°00' E 119°29'0 0.0
2015-Mar-21 23:28N 26°00' E 119°29'0 0.0
2015-Mar-21 22:28N 26°00' E 119°29'0 0.0
2015-Mar-21 21:28N 26°00' E 119°29'0 0.0
2015-Mar-21 20:16N 26°00' E 119°29'0 0.0
2015-Mar-21 19:28N 26°00' E 119°29'0 0.0
2015-Mar-21 18:28N 26°00' E 119°29'0 0.0
2015-Mar-21 17:16N 26°00' E 119°29'0 0.0
2015-Mar-21 16:28N 26°00' E 119°29'0 0.0
2015-Mar-21 15:28N 26°00' E 119°29'0 0.0
2015-Mar-21 14:22N 26°00' E 119°29'0 0.0
2015-Mar-21 13:28N 26°00' E 119°29'0 0.0
2015-Mar-21 12:28N 26°00' E 119°29'0 0.0
2015-Mar-21 11:28N 26°00' E 119°29'0 0.0
2015-Mar-21 10:10N 26°00' E 119°29'0 0.0
2015-Mar-21 09:28N 26°00' E 119°29'0 0.0
2015-Mar-21 08:28N 26°00' E 119°29'0 0.0
2015-Mar-21 07:28N 26°00' E 119°29'0 0.0
2015-Mar-21 06:28N 26°00' E 119°29'0 0.0
2015-Mar-21 05:28N 26°00' E 119°29'0 0.0
2015-Mar-21 04:28N 26°00' E 119°29'0 0.0
2015-Mar-21 03:28N 26°00' E 119°29'4 4.4
2015-Mar-21 02:33N 26°04' E 119°31'1010.5
2015-Mar-21 01:33N 26°06' E 119°42'9 6.8
2015-Mar-21 00:12N 26°00' E 119°51'3 2.6
2015-Mar-20 23:08N 25°58' E 119°53'912.8
2015-Mar-20 22:24N 25°49' E 119°54'1914.8
2015-Mar-20 21:08N 25°31' E 120°00'1014.5
2015-Mar-20 20:25N 25°21' E 120°01'14614.6
2015-Mar-20 10:29N 22°55' E 119°59'1314.7
2015-Mar-20 09:33N 22°43' E 120°06'1312.7
2015-Mar-20 08:33N 22°33' E 120°14'0 0.2
2015-Mar-20 07:29N 22°33' E 120°15'0 0.0
2015-Mar-20 06:29N 22°33' E 120°15'0 0.0
2015-Mar-20 05:29N 22°33' E 120°15'0 0.0
2015-Mar-20 04:29N 22°33' E 120°15'0 0.0
2015-Mar-20 03:29N 22°33' E 120°15'0 0.0
2015-Mar-20 02:29N 22°33' E 120°15'0 0.0
2015-Mar-20 01:29N 22°33' E 120°15'1 0.5
2015-Mar-20 00:33N 22°33' E 120°15'4 4.3
2015-Mar-19 23:33N 22°34' E 120°20'0 0.1
2015-Mar-19 22:30N 22°33' E 120°20'0 0.0
2015-Mar-19 19:30N 22°33' E 120°20'0 0.0
2015-Mar-19 18:18N 22°33' E 120°20'2 3.2
2015-Mar-19 17:33N 22°33' E 120°17'1312.9
2015-Mar-19 16:33N 22°37' E 120°04'1515.2
2015-Mar-19 15:33N 22°47' E 119°52'1615.4
2015-Mar-19 14:32N 22°57' E 119°38'1313.2
2015-Mar-19 13:33N 23°06' E 119°28'6212.0
2015-Mar-19 08:21N 23°52' E 118°42'1114.3
2015-Mar-19 07:33N 23°59' E 118°33'1414.0
2015-Mar-19 06:33N 24°09' E 118°21'1414.0
2015-Mar-19 05:33N 24°20' E 118°12'1211.6
2015-Mar-19 04:33N 24°29' E 118°03'3 2.2
2015-Mar-19 03:22N 24°31' E 118°05'0 0.0
2015-Mar-19 02:28N 24°31' E 118°05'0 0.0
2015-Mar-19 01:25N 24°31' E 118°05'0 0.0
2015-Mar-19 00:25N 24°31' E 118°05'0 0.0
2015-Mar-18 23:31N 24°31' E 118°05'0 0.0
2015-Mar-18 22:10N 24°31' E 118°05'0 0.0
2015-Mar-18 21:28N 24°31' E 118°05'0 0.0
2015-Mar-18 20:19N 24°31' E 118°05'0 0.0
2015-Mar-18 19:31N 24°31' E 118°05'0 0.0
2015-Mar-18 18:31N 24°31' E 118°05'0 0.0
2015-Mar-18 17:28N 24°31' E 118°05'0 0.0
2015-Mar-18 16:16N 24°31' E 118°05'0 0.0
2015-Mar-18 15:22N 24°31' E 118°05'0 0.0
2015-Mar-18 14:31N 24°31' E 118°05'0 0.0
2015-Mar-18 13:31N 24°31' E 118°05'0 0.0
2015-Mar-18 12:31N 24°31' E 118°05'0 0.0
2015-Mar-18 11:31N 24°31' E 118°05'0 0.0
2015-Mar-18 10:28N 24°31' E 118°05'4 4.0
2015-Mar-18 09:33N 24°28' E 118°03'8 8.0
2015-Mar-18 08:30N 24°21' E 118°09'1212.1
2015-Mar-18 07:33N 24°20' E 118°22'1413.0
2015-Mar-18 06:28N 24°24' E 118°37'1313.5
2015-Mar-18 05:28N 24°29' E 118°50'1313.8
2015-Mar-18 04:33N 24°34' E 119°03'1413.7
2015-Mar-18 03:32N 24°38' E 119°18'  

Dump ship's entire track history